| time (UTC) | temp C | wind direction | speed KPH | gust KPH | rain 1hr cm | rain 24hr cm | rain mn cm | humidity % | barometer mb |
| 20260906064816 | 22 | 360 | 16.1 | 0.0 | 0.00 | 0.00 | 0.00 | 50 | 1018.0 |
| 20260906063317 | 22 | 360 | 16.1 | 0.0 | 0.00 | 0.00 | 0.00 | 50 | 1018.0 |
| 20260906061932 | 22 | 30 | 24.1 | 0.0 | 0.00 | 0.00 | 0.00 | 50 | 1017.0 |
| 20260906060317 | 22 | 30 | 24.1 | 0.0 | 0.00 | 0.00 | 0.00 | 50 | 1017.0 |
| 20260906054843 | 21 | 20 | 27.4 | 0.0 | 0.00 | 0.00 | 0.00 | 53 | 1017.0 |
| 20260906053317 | 21 | 20 | 27.4 | 0.0 | 0.00 | 0.00 | 0.00 | 53 | 1017.0 |
| 20260906051817 | 20 | 360 | 22.5 | 0.0 | 0.00 | 0.00 | 0.00 | 56 | 1017.0 |
| 20260906050432 | 20 | 360 | 22.5 | 0.0 | 0.00 | 0.00 | 0.00 | 56 | 1017.0 |
| 20260906044932 | 18 | 20 | 20.9 | 0.0 | 0.00 | 0.00 | 0.00 | 64 | 1017.0 |
| 20260906043421 | 18 | 30 | 22.5 | 0.0 | 0.00 | 0.00 | 0.00 | 60 | 1016.0 |
| 20260906041933 | 18 | 30 | 22.5 | 0.0 | 0.00 | 0.00 | 0.00 | 60 | 1016.0 |
| 20260906040337 | 18 | 30 | 22.5 | 0.0 | 0.00 | 0.00 | 0.00 | 60 | 1016.0 |
| 20260906034833 | 18 | 20 | 24.1 | 0.0 | 0.00 | 0.00 | 0.00 | 60 | 1016.0 |
| 20260906033433 | 18 | 20 | 24.1 | 0.0 | 0.00 | 0.00 | 0.00 | 60 | 1016.0 |
| 20260906031932 | 20 | 20 | 27.4 | 0.0 | 0.00 | 0.00 | 0.00 | 56 | 1016.0 |
| 20260906030432 | 20 | 20 | 27.4 | 0.0 | 0.00 | 0.00 | 0.00 | 56 | 1016.0 |
| 20260906024844 | 20 | 20 | 27.4 | 0.0 | 0.00 | 0.00 | 0.00 | 64 | 1015.0 |
| 20260906023317 | 20 | 20 | 27.4 | 0.0 | 0.00 | 0.00 | 0.00 | 64 | 1015.0 |
| 20260906021824 | 20 | 20 | 25.7 | 0.0 | 0.00 | 0.00 | 0.00 | 69 | 1015.0 |
| 20260906020318 | 20 | 20 | 25.7 | 0.0 | 0.00 | 0.00 | 0.00 | 69 | 1015.0 |
| 20260906014818 | 20 | 10 | 27.4 | 0.0 | 0.00 | 0.00 | 0.00 | 69 | 1015.0 |
| 20260906013433 | 20 | 10 | 27.4 | 0.0 | 0.00 | 0.00 | 0.00 | 69 | 1015.0 |
| 20260906011817 | 20 | 20 | 24.1 | 0.0 | 0.00 | 0.00 | 0.00 | 69 | 1015.0 |
| 20260906010317 | 20 | 20 | 24.1 | 0.0 | 0.00 | 0.00 | 0.00 | 69 | 1015.0 |
| 20260906004934 | 20 | 10 | 20.9 | 0.0 | 0.00 | 0.00 | 0.00 | 69 | 1015.0 |
| 20260906003443 | 20 | 10 | 20.9 | 0.0 | 0.00 | 0.00 | 0.00 | 69 | 1015.0 |
| 20260906001933 | 18 | 350 | 16.1 | 0.0 | 0.00 | 0.00 | 0.00 | 68 | 1015.0 |
| 20260906000422 | 18 | 350 | 16.1 | 0.0 | 0.00 | 0.00 | 0.00 | 68 | 1015.0 |
| 20260905234827 | 18 | 330 | 12.9 | 0.0 | 0.00 | 0.00 | 0.00 | 73 | 1014.0 |
| 20260905233317 | 18 | 330 | 12.9 | 0.0 | 0.00 | 0.00 | 0.00 | 73 | 1014.0 |
| 20260905231933 | 18 | 260 | 12.9 | 0.0 | 0.00 | 0.00 | 0.00 | 73 | 1014.0 |
| 20260905230349 | 18 | 260 | 12.9 | 0.0 | 0.00 | 0.00 | 0.00 | 73 | 1014.0 |
| 20260905224933 | 17 | 260 | 12.9 | 0.0 | 0.00 | 0.00 | 0.00 | 78 | 1014.0 |
| 20260905223331 | 17 | 260 | 12.9 | 0.0 | 0.00 | 0.00 | 0.00 | 78 | 1014.0 |
| 20260905221918 | 18 | 240 | 11.3 | 0.0 | 0.00 | 0.00 | 0.00 | 73 | 1014.0 |
| 20260905220433 | 18 | 240 | 11.3 | 0.0 | 0.00 | 0.00 | 0.00 | 73 | 1014.0 |
| 20260905214932 | 20 | 220 | 11.3 | 0.0 | 0.00 | 0.00 | 0.00 | 69 | 1014.0 |
| 20260905213317 | 20 | 220 | 11.3 | 0.0 | 0.00 | 0.00 | 0.00 | 69 | 1014.0 |
| 20260905211817 | 21 | 200 | 9.7 | 0.0 | 0.00 | 0.00 | 0.00 | 64 | 1014.0 |
| 20260905210317 | 21 | 200 | 9.7 | 0.0 | 0.00 | 0.00 | 0.00 | 64 | 1014.0 |
| 20260905204828 | 22 | 210 | 11.3 | 0.0 | 0.00 | 0.00 | 0.00 | 61 | 1014.0 |
| 20260905203317 | 22 | 210 | 11.3 | 0.0 | 0.00 | 0.00 | 0.00 | 61 | 1014.0 |
| 20260905201817 | 22 | 210 | 11.3 | 0.0 | 0.00 | 0.00 | 0.00 | 61 | 1014.0 |
| 20260905200433 | 22 | 210 | 11.3 | 0.0 | 0.00 | 0.00 | 0.00 | 61 | 1014.0 |
| 20260905194924 | 22 | 210 | 14.5 | 0.0 | 0.00 | 0.00 | 0.00 | 57 | 1014.0 |
| 20260905193317 | 22 | 210 | 14.5 | 0.0 | 0.00 | 0.00 | 0.00 | 57 | 1014.0 |
| 20260905191846 | 22 | 210 | 16.1 | 0.0 | 0.00 | 0.00 | 0.00 | 57 | 1014.0 |
| 20260905190318 | 22 | 210 | 16.1 | 0.0 | 0.00 | 0.00 | 0.00 | 57 | 1014.0 |
| 20260905184818 | 23 | 190 | 17.7 | 0.0 | 0.00 | 0.00 | 0.00 | 54 | 1014.0 |
| 20260905183322 | 23 | 190 | 17.7 | 0.0 | 0.00 | 0.00 | 0.00 | 54 | 1014.0 |
| 20260905181817 | 25 | 190 | 17.7 | 0.0 | 0.00 | 0.00 | 0.00 | 47 | 1014.0 |
| 20260905180317 | 25 | 190 | 17.7 | 0.0 | 0.00 | 0.00 | 0.00 | 47 | 1014.0 |
| 20260905174817 | 26 | 180 | 17.7 | 0.0 | 0.00 | 0.00 | 0.00 | 48 | 1014.0 |
| 20260905173317 | 26 | 180 | 17.7 | 0.0 | 0.00 | 0.00 | 0.00 | 48 | 1014.0 |
| 20260905171828 | 26 | 220 | 11.3 | 0.0 | 0.00 | 0.00 | 0.00 | 42 | 1014.0 |
| 20260905170317 | 26 | 220 | 11.3 | 0.0 | 0.00 | 0.00 | 0.00 | 42 | 1014.0 |
| 20260905164817 | 28 | 240 | 11.3 | 0.0 | 0.00 | 0.00 | 0.00 | 31 | 1014.0 |
| 20260905163318 | 28 | 240 | 11.3 | 0.0 | 0.00 | 0.00 | 0.00 | 31 | 1014.0 |
| 20260905161818 | 31 | 250 | 12.9 | 0.0 | 0.00 | 0.00 | 0.00 | 25 | 1014.0 |
| 20260905160318 | 31 | 250 | 12.9 | 0.0 | 0.00 | 0.00 | 0.00 | 25 | 1014.0 |
| 20260905154834 | 32 | 260 | 14.5 | 0.0 | 0.00 | 0.00 | 0.00 | 24 | 1014.0 |
| 20260905153317 | 32 | 260 | 14.5 | 0.0 | 0.00 | 0.00 | 0.00 | 24 | 1014.0 |
| 20260905151818 | 32 | 260 | 16.1 | 0.0 | 0.00 | 0.00 | 0.00 | 24 | 1014.0 |
| 20260905150318 | 32 | 260 | 16.1 | 0.0 | 0.00 | 0.00 | 0.00 | 24 | 1014.0 |
| 20260905144817 | 32 | 250 | 20.9 | 0.0 | 0.00 | 0.00 | 0.00 | 23 | 1014.0 |
| 20260905143317 | 32 | 250 | 20.9 | 0.0 | 0.00 | 0.00 | 0.00 | 23 | 1014.0 |
| 20260905141817 | 33 | 260 | 17.7 | 0.0 | 0.00 | 0.00 | 0.00 | 21 | 1014.0 |
| 20260905140317 | 33 | 260 | 17.7 | 0.0 | 0.00 | 0.00 | 0.00 | 21 | 1014.0 |
| 20260905134931 | 32 | 250 | 17.7 | 0.0 | 0.00 | 0.00 | 0.00 | 21 | 1014.0 |
| 20260905133317 | 32 | 250 | 17.7 | 0.0 | 0.00 | 0.00 | 0.00 | 21 | 1014.0 |
| 20260905131820 | 33 | 260 | 22.5 | 0.0 | 0.00 | 0.00 | 0.00 | 23 | 1015.0 |
| 20260905130338 | 33 | 260 | 22.5 | 0.0 | 0.00 | 0.00 | 0.00 | 23 | 1015.0 |
| 20260905124818 | 33 | 250 | 17.7 | 0.0 | 0.00 | 0.00 | 0.00 | 23 | 1015.0 |
| 20260905123318 | 33 | 250 | 17.7 | 0.0 | 0.00 | 0.00 | 0.00 | 23 | 1015.0 |
| 20260905121845 | 32 | 250 | 20.9 | 0.0 | 0.00 | 0.00 | 0.00 | 24 | 1015.0 |
| 20260905120318 | 32 | 250 | 20.9 | 0.0 | 0.00 | 0.00 | 0.00 | 24 | 1015.0 |
| 20260905114817 | 32 | 260 | 20.9 | 0.0 | 0.00 | 0.00 | 0.00 | 24 | 1015.0 |
| 20260905113317 | 32 | 260 | 20.9 | 0.0 | 0.00 | 0.00 | 0.00 | 24 | 1015.0 |
| 20260905111836 | 32 | 250 | 20.9 | 0.0 | 0.00 | 0.00 | 0.00 | 26 | 1015.0 |
| 20260905110317 | 32 | 250 | 20.9 | 0.0 | 0.00 | 0.00 | 0.00 | 26 | 1015.0 |
| 20260905104817 | 32 | 240 | 20.9 | 0.0 | 0.00 | 0.00 | 0.00 | 26 | 1016.0 |
| 20260905103317 | 32 | 240 | 20.9 | 0.0 | 0.00 | 0.00 | 0.00 | 26 | 1016.0 |
| 20260905101817 | 32 | 230 | 22.5 | 0.0 | 0.00 | 0.00 | 0.00 | 27 | 1016.0 |
| 20260905100318 | 32 | 230 | 22.5 | 0.0 | 0.00 | 0.00 | 0.00 | 27 | 1016.0 |
| 20260905094933 | 32 | 230 | 17.7 | 0.0 | 0.00 | 0.00 | 0.00 | 29 | 1016.0 |
| 20260905093317 | 32 | 230 | 17.7 | 0.0 | 0.00 | 0.00 | 0.00 | 29 | 1016.0 |
| 20260905091817 | 31 | 230 | 17.7 | 0.0 | 0.00 | 0.00 | 0.00 | 31 | 1016.0 |
| 20260905090317 | 31 | 230 | 17.7 | 0.0 | 0.00 | 0.00 | 0.00 | 31 | 1016.0 |
| 20260905084817 | 30 | 230 | 16.1 | 0.0 | 0.00 | 0.00 | 0.00 | 38 | 1017.0 |
| 20260905083317 | 30 | 230 | 16.1 | 0.0 | 0.00 | 0.00 | 0.00 | 38 | 1017.0 |
| 20260905081817 | 28 | 260 | 14.5 | 0.0 | 0.00 | 0.00 | 0.00 | 37 | 1017.0 |
| 20260905080318 | 28 | 260 | 14.5 | 0.0 | 0.00 | 0.00 | 0.00 | 37 | 1017.0 |
| 20260905074817 | 27 | 250 | 16.1 | 0.0 | 0.00 | 0.00 | 0.00 | 42 | 1017.0 |
| 20260905073326 | 27 | 250 | 16.1 | 0.0 | 0.00 | 0.00 | 0.00 | 42 | 1017.0 |
| 20260905071818 | 26 | 250 | 14.5 | 0.0 | 0.00 | 0.00 | 0.00 | 54 | 1017.0 |
| 20260905070317 | 26 | 250 | 14.5 | 0.0 | 0.00 | 0.00 | 0.00 | 54 | 1017.0 |